createdAt,value
2019-04-22T00:01:31.238Z,65.00
2019-04-22T00:04:04.878Z,64.90
2019-04-22T00:06:51.831Z,65.20
2019-04-22T00:09:25.200Z,65.30
2019-04-22T00:11:54.585Z,65.60
2019-04-22T00:14:20.433Z,65.30
2019-04-22T00:17:00.744Z,65.40
2019-04-22T00:19:32.095Z,65.50
2019-04-22T00:22:05.700Z,65.50
2019-04-22T00:24:27.277Z,66.00
2019-04-22T00:26:58.937Z,66.20
2019-04-22T00:32:02.039Z,66.40
2019-04-22T00:34:27.031Z,66.70
2019-04-22T00:37:00.963Z,66.60
2019-04-22T00:39:38.405Z,67.00
2019-04-22T00:42:01.958Z,67.40
2019-04-22T00:47:12.190Z,67.20
2019-04-22T00:50:06.672Z,68.30
2019-04-22T00:54:37.685Z,70.00
2019-04-22T00:57:01.451Z,70.40
2019-04-22T00:59:40.371Z,70.70
2019-04-22T01:02:07.650Z,70.10
2019-04-22T01:04:44.215Z,69.80
2019-04-22T01:07:09.280Z,69.50
2019-04-22T01:09:41.193Z,69.60
2019-04-22T01:12:07.568Z,69.50
2019-04-22T01:14:35.290Z,70.00
2019-04-22T01:17:07.259Z,70.30
2019-04-22T01:19:45.189Z,70.50
2019-04-22T01:22:13.151Z,72.20
2019-04-22T01:24:38.729Z,71.60
2019-04-22T01:27:08.125Z,71.50
2019-04-22T01:29:37.570Z,71.80
2019-04-22T01:31:53.108Z,71.90
2019-04-22T01:34:36.174Z,72.40
2019-04-22T01:37:08.049Z,72.20
2019-04-22T01:39:50.096Z,72.40
2019-04-22T01:42:15.761Z,72.20
2019-04-22T01:44:45.484Z,72.50
2019-04-22T01:47:26.666Z,73.30
2019-04-22T01:49:49.526Z,73.80
2019-04-22T01:55:04.306Z,74.00
2019-04-22T01:57:17.206Z,74.30
2019-04-22T01:59:41.598Z,74.60
2019-04-22T02:02:22.184Z,74.00
2019-04-22T02:04:53.316Z,74.10
2019-04-22T02:07:28.055Z,74.40
2019-04-22T02:12:29.931Z,75.70
2019-04-22T02:14:52.233Z,75.40
2019-04-22T02:17:26.931Z,75.20
2019-04-22T02:19:59.090Z,75.90
2019-04-22T02:22:46.409Z,76.30
2019-04-22T02:25:18.546Z,76.50
2019-04-22T02:27:35.189Z,76.80
2019-04-22T02:29:51.804Z,76.80
2019-04-22T02:33:08.181Z,77.30
2019-04-22T02:37:46.102Z,77.40
2019-04-22T02:42:55.864Z,78.90
2019-04-22T02:44:58.536Z,79.00
2019-04-22T02:47:51.993Z,79.00
2019-04-22T02:52:39.473Z,79.60
2019-04-22T02:57:47.098Z,80.60
2019-04-22T03:00:18.139Z,80.90
2019-04-22T03:05:12.963Z,81.60
2019-04-22T03:07:41.047Z,82.00
2019-04-22T03:10:09.953Z,82.30
2019-04-22T03:12:33.257Z,82.20
2019-04-22T03:15:07.490Z,83.00
2019-04-22T03:17:39.053Z,82.90
2019-04-22T03:22:34.443Z,82.90
2019-04-22T03:25:42.809Z,83.70
2019-04-22T03:27:40.237Z,84.50
2019-04-22T03:30:47.617Z,85.10
2019-04-22T03:40:26.001Z,86.20
2019-04-22T03:45:26.665Z,86.70
2019-04-22T03:50:20.632Z,88.00
2019-04-22T03:52:47.071Z,87.90
2019-04-22T03:55:15.616Z,88.60
2019-04-22T04:02:46.985Z,89.20
2019-04-22T04:06:37.018Z,90.00
2019-04-22T04:15:18.644Z,90.60
2019-04-22T04:28:24.502Z,90.60
2019-04-22T04:32:58.931Z,90.90
2019-04-22T04:35:39.151Z,91.00
2019-04-22T04:37:52.403Z,91.10
2019-04-22T04:43:05.672Z,91.40
2019-04-22T04:45:31.990Z,91.60
2019-04-22T04:55:23.972Z,92.10
2019-04-22T04:58:13.796Z,92.20
2019-04-22T05:02:55.902Z,92.40
2019-04-22T05:05:29.581Z,92.50
2019-04-22T05:18:16.619Z,92.70
2019-04-22T05:22:44.819Z,92.30
2019-04-22T05:25:17.925Z,92.30
2019-04-22T05:27:50.962Z,92.30
2019-04-22T05:32:52.755Z,92.30
2019-04-22T05:35:23.036Z,92.30
2019-04-22T05:37:51.904Z,92.10
2019-04-22T05:42:54.589Z,92.60
2019-04-22T05:47:55.047Z,92.00
2019-04-22T05:50:21.890Z,92.10
2019-04-22T05:52:55.372Z,92.20
2019-04-22T05:55:33.166Z,92.30
2019-04-22T05:57:57.649Z,92.20
2019-04-22T06:00:30.953Z,91.50
2019-04-22T06:02:56.801Z,91.30
2019-04-22T06:05:32.692Z,91.30
2019-04-22T06:08:01.499Z,91.50
2019-04-22T06:10:33.451Z,91.10
2019-04-22T06:12:59.224Z,91.10
2019-04-22T06:15:36.188Z,90.90
2019-04-22T06:18:16.233Z,90.90
2019-04-22T06:20:37.305Z,90.90
2019-04-22T06:23:12.440Z,90.80
2019-04-22T06:26:05.246Z,90.50
2019-04-22T06:28:16.031Z,90.70
2019-04-22T06:30:41.738Z,91.00
2019-04-22T06:35:45.696Z,90.60
2019-04-22T06:40:46.762Z,90.60
2019-04-22T06:45:39.944Z,90.60
2019-04-22T06:50:52.850Z,89.00
2019-04-22T06:53:29.803Z,89.20
2019-04-22T06:55:45.637Z,88.40
2019-04-22T06:58:15.113Z,87.60
2019-04-22T07:05:46.395Z,85.60
2019-04-22T07:08:45.706Z,86.60
2019-04-22T07:10:47.760Z,84.40
2019-04-22T07:13:23.254Z,83.70
2019-04-22T07:20:54.675Z,82.80
2019-04-22T07:23:24.819Z,83.30
2019-04-22T07:25:45.205Z,82.90
2019-04-22T07:28:15.784Z,82.80
2019-04-22T07:30:44.835Z,81.70
2019-04-22T07:33:22.904Z,82.30
2019-04-22T07:38:23.725Z,82.30
2019-04-22T07:40:50.120Z,80.50
2019-04-22T07:43:32.472Z,81.50
2019-04-22T07:45:49.155Z,80.40
2019-04-22T07:50:56.043Z,80.50
2019-04-22T07:53:24.619Z,80.10
2019-04-22T07:55:53.272Z,79.80
2019-04-22T07:58:27.406Z,79.30
2019-04-22T08:00:59.108Z,78.30
2019-04-22T08:03:28.931Z,78.60
2019-04-22T08:08:27.171Z,77.80
2019-04-22T08:10:56.741Z,77.00
2019-04-22T08:13:25.281Z,76.90
2019-04-22T08:15:58.442Z,75.40
2019-04-22T08:18:28.918Z,74.70
2019-04-22T08:20:54.098Z,74.30
2019-04-22T08:25:55.806Z,71.40
2019-04-22T08:28:32.019Z,70.90
2019-04-22T08:31:01.919Z,73.00
2019-04-22T08:33:30.653Z,72.60
2019-04-22T08:38:46.932Z,71.10
2019-04-22T08:41:28.345Z,71.90
2019-04-22T08:46:27.450Z,70.20
2019-04-22T08:48:49.564Z,69.00
2019-04-22T08:51:21.086Z,67.50
2019-04-22T08:53:56.260Z,65.80
2019-04-22T08:56:29.476Z,66.80
2019-04-22T08:58:57.275Z,64.40
2019-04-22T09:01:23.766Z,63.30
2019-04-22T09:03:52.686Z,64.00
2019-04-22T09:06:34.127Z,62.20
2019-04-22T09:08:55.214Z,61.50
2019-04-22T09:11:31.269Z,61.90
2019-04-22T09:16:28.267Z,61.50
2019-04-22T09:18:55.979Z,59.70
2019-04-22T09:21:27.648Z,60.40
2019-04-22T09:24:00.773Z,60.40
2019-04-22T09:26:25.460Z,59.30
2019-04-22T09:28:59.835Z,58.20
2019-04-22T09:33:47.656Z,57.40
2019-04-22T09:36:29.537Z,57.00
2019-04-22T09:38:52.681Z,56.90
2019-04-22T09:41:27.209Z,57.40
2019-04-22T09:44:01.161Z,55.70
2019-04-22T09:46:32.719Z,55.40
2019-04-22T09:48:59.021Z,56.80
2019-04-22T09:51:26.852Z,56.10
2019-04-22T09:54:00.705Z,55.20
2019-04-22T09:58:57.021Z,55.50
2019-04-22T10:11:36.120Z,54.20
2019-04-22T10:14:01.636Z,50.30
2019-04-22T10:16:37.165Z,50.60
2019-04-22T10:24:03.524Z,50.70
2019-04-22T10:26:34.572Z,49.80
2019-04-22T10:29:06.925Z,47.30
2019-04-22T10:33:53.286Z,47.60
2019-04-22T10:36:07.864Z,48.10
2019-04-22T10:38:36.801Z,49.30
2019-04-22T10:41:05.439Z,47.00
2019-04-22T10:43:34.933Z,46.00
2019-04-22T10:46:04.107Z,45.20
2019-04-22T10:48:32.740Z,45.20
2019-04-22T10:51:01.240Z,46.50
2019-04-22T10:53:31.148Z,45.30
2019-04-22T10:56:00.973Z,44.80
2019-04-22T10:58:30.798Z,44.10
2019-04-22T11:01:00.168Z,44.10
2019-04-22T11:03:28.886Z,44.70
2019-04-22T11:05:59.081Z,45.60
2019-04-22T11:08:33.903Z,43.20
2019-04-22T11:11:12.426Z,43.50
2019-04-22T11:13:28.435Z,42.50
2019-04-22T11:15:58.286Z,42.00
2019-04-22T11:18:27.422Z,42.60
2019-04-22T11:20:56.164Z,41.60
2019-04-22T11:23:24.800Z,42.20
2019-04-22T11:25:54.069Z,43.40
2019-04-22T11:28:23.366Z,43.10
2019-04-22T11:30:52.343Z,40.50
2019-04-22T11:33:20.973Z,41.80
2019-04-22T11:35:50.119Z,40.50
2019-04-22T11:38:19.133Z,41.10
2019-04-22T11:40:52.316Z,39.90
2019-04-22T11:43:17.922Z,42.10
2019-04-22T11:45:47.103Z,40.20
2019-04-22T11:48:15.706Z,41.30
2019-04-22T11:50:46.159Z,40.20
2019-04-22T11:53:14.836Z,42.40
2019-04-22T11:55:44.610Z,40.90
2019-04-22T11:58:14.775Z,39.30
2019-04-22T12:00:45.127Z,39.30
2019-04-22T12:03:14.754Z,39.90
2019-04-22T12:05:43.920Z,40.60
2019-04-22T12:08:13.207Z,39.50
2019-04-22T12:10:49.435Z,40.90
2019-04-22T12:13:12.358Z,40.10
2019-04-22T12:15:40.914Z,41.20
2019-04-22T12:18:11.183Z,41.70
2019-04-22T12:20:41.408Z,39.90
2019-04-22T12:23:11.371Z,41.30
2019-04-22T12:25:48.629Z,40.50
2019-04-22T12:28:12.905Z,39.80
2019-04-22T12:30:41.805Z,39.60
2019-04-22T12:33:11.629Z,40.40
2019-04-22T12:35:40.511Z,39.40
2019-04-22T12:38:11.153Z,39.00
2019-04-22T12:40:48.669Z,40.00
2019-04-22T12:43:11.938Z,41.00
2019-04-22T12:45:40.334Z,39.80
2019-04-22T12:48:10.099Z,41.40
2019-04-22T12:50:43.511Z,40.90
2019-04-22T12:53:13.855Z,40.80
2019-04-22T12:55:39.741Z,38.60
2019-04-22T12:58:09.625Z,37.90
2019-04-22T13:00:38.556Z,39.00
2019-04-22T13:03:07.359Z,37.90
2019-04-22T13:05:37.462Z,37.40
2019-04-22T13:08:07.572Z,37.40
2019-04-22T13:10:45.697Z,38.60
2019-04-22T13:13:07.139Z,38.00
2019-04-22T13:15:37.032Z,38.80
2019-04-22T13:18:16.979Z,37.10
2019-04-22T13:20:36.531Z,38.90
2019-04-22T13:23:05.208Z,38.70
2019-04-22T13:25:34.705Z,38.20
2019-04-22T13:28:04.897Z,38.90
2019-04-22T13:30:34.701Z,38.40
2019-04-22T13:33:03.311Z,36.90
2019-04-22T13:35:31.942Z,38.00
2019-04-22T13:38:01.254Z,37.20
2019-04-22T13:40:30.813Z,37.10
2019-04-22T13:43:00.780Z,36.10
2019-04-22T13:45:29.801Z,37.10
2019-04-22T13:48:16.710Z,37.30
2019-04-22T13:50:56.317Z,36.20
2019-04-22T13:58:15.698Z,36.00
2019-04-22T14:00:34.416Z,35.60
2019-04-22T14:03:10.700Z,36.10
2019-04-22T14:05:42.523Z,35.00
2019-04-22T14:08:12.688Z,34.30
2019-04-22T14:10:42.620Z,36.60
2019-04-22T14:13:12.110Z,37.50
2019-04-22T14:15:43.575Z,35.10
2019-04-22T14:18:11.036Z,34.20
2019-04-22T14:20:40.872Z,34.60
2019-04-22T14:23:10.263Z,36.50
2019-04-22T14:25:41.042Z,34.40
2019-04-22T14:28:15.059Z,34.50
2019-04-22T14:30:39.976Z,35.80
2019-04-22T14:33:09.759Z,35.70
2019-04-22T14:35:39.782Z,35.40
2019-04-22T14:38:08.805Z,36.50
2019-04-22T14:40:40.931Z,36.70
2019-04-22T14:43:28.999Z,36.40
2019-04-22T14:46:06.999Z,37.20
2019-04-22T14:48:35.943Z,36.80
2019-04-22T14:50:56.021Z,37.20
2019-04-22T14:53:30.879Z,37.30
2019-04-22T14:55:40.494Z,37.40
2019-04-22T14:58:09.256Z,38.30
2019-04-22T15:00:38.208Z,38.10
2019-04-22T15:03:08.185Z,38.60
2019-04-22T15:05:37.547Z,40.20
2019-04-22T15:08:07.087Z,39.90
2019-04-22T15:10:36.210Z,38.80
2019-04-22T15:13:05.420Z,39.10
2019-04-22T15:15:43.197Z,39.30
2019-04-22T15:18:26.056Z,38.60
2019-04-22T15:21:00.652Z,39.30
2019-04-22T15:23:30.879Z,39.60
2019-04-22T15:25:59.544Z,39.70
2019-04-22T15:28:29.252Z,38.90
2019-04-22T15:30:59.355Z,41.30
2019-04-22T15:33:29.522Z,42.50
2019-04-22T15:35:59.041Z,41.90
2019-04-22T15:38:28.243Z,41.70
2019-04-22T15:40:56.855Z,41.90
2019-04-22T15:43:27.986Z,42.00
2019-04-22T15:45:57.139Z,42.30
2019-04-22T15:48:27.112Z,43.50
2019-04-22T15:50:55.791Z,43.80
2019-04-22T15:53:25.415Z,43.70
2019-04-22T15:55:54.669Z,45.00
2019-04-22T15:58:23.869Z,44.50
2019-04-22T16:01:03.949Z,43.80
2019-04-22T16:03:22.913Z,43.80
2019-04-22T16:05:52.251Z,43.60
2019-04-22T16:08:21.355Z,43.50
2019-04-22T16:10:51.549Z,43.80
2019-04-22T16:13:24.438Z,44.30
2019-04-22T16:15:50.578Z,44.30
2019-04-22T16:18:20.139Z,44.00
2019-04-22T16:20:50.181Z,44.60
2019-04-22T16:23:28.199Z,43.70
2019-04-22T16:25:59.092Z,43.80
2019-04-22T16:28:29.166Z,43.80
2019-04-22T16:30:59.466Z,44.30
2019-04-22T16:33:28.530Z,44.80
2019-04-22T16:35:58.551Z,44.50
2019-04-22T16:38:27.231Z,44.50
2019-04-22T16:40:56.818Z,44.40
2019-04-22T16:43:26.575Z,44.30
2019-04-22T16:45:55.853Z,44.50
2019-04-22T16:48:25.558Z,44.80
2019-04-22T16:50:55.007Z,44.90
2019-04-22T16:53:25.290Z,45.10
2019-04-22T16:55:54.887Z,45.20
2019-04-22T16:58:25.035Z,45.00
2019-04-22T17:00:54.673Z,44.70
2019-04-22T17:03:34.588Z,45.30
2019-04-22T17:06:17.383Z,46.20
2019-04-22T17:08:46.702Z,45.20
2019-04-22T17:11:16.017Z,45.40
2019-04-22T17:13:46.184Z,45.80
2019-04-22T17:16:16.028Z,45.60
2019-04-22T17:18:45.525Z,45.60
2019-04-22T17:21:15.006Z,45.90
2019-04-22T17:23:43.596Z,46.10
2019-04-22T17:26:12.714Z,46.50
2019-04-22T17:28:41.713Z,46.30
2019-04-22T17:31:10.859Z,46.60
2019-04-22T17:33:39.525Z,46.20
2019-04-22T17:36:10.175Z,46.50
2019-04-22T17:38:48.676Z,46.60
2019-04-22T17:41:23.138Z,46.80
2019-04-22T17:44:21.854Z,47.10
2019-04-22T17:46:40.444Z,47.20
2019-04-22T17:49:26.273Z,47.50
2019-04-22T17:52:10.737Z,47.80
2019-04-22T17:54:42.089Z,47.50
2019-04-22T17:57:09.749Z,47.90
2019-04-22T17:59:42.068Z,47.90
2019-04-22T18:02:12.922Z,47.50
2019-04-22T18:04:23.352Z,47.70
2019-04-22T18:07:18.607Z,47.90
2019-04-22T18:10:10.982Z,47.70
2019-04-22T18:12:20.414Z,47.80
2019-04-22T18:14:49.710Z,47.90
2019-04-22T18:17:17.364Z,48.00
2019-04-22T18:19:39.940Z,48.20
2019-04-22T18:22:07.632Z,48.10
2019-04-22T18:24:32.462Z,48.50
2019-04-22T18:27:31.162Z,48.50
2019-04-22T18:29:43.399Z,49.00
2019-04-22T18:32:07.403Z,49.10
2019-04-22T18:34:39.028Z,49.30
2019-04-22T18:37:13.004Z,49.20
2019-04-22T18:39:46.363Z,49.30
2019-04-22T18:42:10.734Z,49.40
2019-04-22T18:44:49.393Z,49.60
2019-04-22T18:47:14.624Z,49.70
2019-04-22T18:49:41.800Z,50.00
2019-04-22T18:52:19.633Z,50.10
2019-04-22T18:54:55.244Z,50.20
2019-04-22T18:57:23.270Z,50.60
2019-04-22T18:59:37.954Z,50.60
2019-04-22T19:02:08.999Z,50.50
2019-04-22T19:04:44.377Z,50.30
2019-04-22T19:07:28.644Z,50.60
2019-04-22T19:10:04.885Z,50.50
2019-04-22T19:12:33.758Z,50.40
2019-04-22T19:15:03.776Z,50.60
2019-04-22T19:20:03.126Z,50.40
2019-04-22T19:22:29.836Z,50.40
2019-04-22T19:24:54.956Z,50.20
2019-04-22T19:27:26.612Z,50.00
2019-04-22T19:30:04.323Z,50.00
2019-04-22T19:32:34.016Z,50.20
2019-04-22T19:34:59.965Z,50.30
2019-04-22T19:37:28.417Z,50.50
2019-04-22T19:40:09.590Z,50.80
2019-04-22T19:42:38.683Z,51.10
2019-04-22T19:45:04.518Z,50.90
2019-04-22T19:47:50.097Z,50.60
2019-04-22T19:50:12.868Z,50.70
2019-04-22T19:52:35.542Z,50.40
2019-04-22T19:55:07.913Z,50.60
2019-04-22T19:57:32.575Z,50.40
2019-04-22T20:00:18.469Z,50.40
2019-04-22T20:02:51.175Z,50.30
2019-04-22T20:05:37.201Z,50.60
2019-04-22T20:08:07.318Z,50.70
2019-04-22T20:10:33.101Z,50.70
2019-04-22T20:13:07.629Z,50.90
2019-04-22T20:15:30.238Z,50.80
2019-04-22T20:20:42.230Z,51.10
2019-04-22T20:23:01.820Z,51.20
2019-04-22T20:25:38.961Z,51.20
2019-04-22T20:28:13.236Z,51.30
2019-04-22T20:30:39.673Z,51.20
2019-04-22T20:33:01.913Z,51.40
2019-04-22T20:35:43.685Z,51.40
2019-04-22T20:38:08.807Z,51.40
2019-04-22T20:40:39.987Z,51.30
2019-04-22T20:43:17.626Z,51.30
2019-04-22T20:45:45.905Z,51.80
2019-04-22T20:48:03.670Z,51.60
2019-04-22T20:50:48.176Z,51.70
2019-04-22T20:53:18.733Z,52.00
2019-04-22T20:55:43.569Z,51.80
2019-04-22T20:58:18.029Z,52.00
2019-04-22T21:00:40.279Z,51.90
2019-04-22T21:03:05.394Z,51.80
2019-04-22T21:05:38.184Z,51.80
2019-04-22T21:08:18.997Z,51.90
2019-04-22T21:10:44.813Z,51.80
2019-04-22T21:13:12.806Z,51.60
2019-04-22T21:15:49.353Z,51.60
2019-04-22T21:18:19.110Z,51.50
2019-04-22T21:20:59.203Z,51.50
2019-04-22T21:23:19.855Z,51.50
2019-04-22T21:25:54.341Z,51.00
2019-04-22T21:28:21.658Z,51.10
2019-04-22T21:30:53.512Z,50.90
2019-04-22T21:33:18.426Z,50.70
2019-04-22T21:36:12.162Z,50.60
2019-04-22T21:38:31.079Z,50.50
2019-04-22T21:40:56.390Z,50.60
2019-04-22T21:43:30.132Z,50.30
2019-04-22T21:45:57.269Z,50.30
2019-04-22T21:48:31.146Z,50.50
2019-04-22T21:50:59.867Z,50.60
2019-04-22T21:53:35.058Z,50.40
2019-04-22T21:56:11.827Z,50.30
2019-04-22T21:58:38.538Z,50.30
2019-04-22T22:01:16.907Z,50.50
2019-04-22T22:03:38.837Z,50.10
2019-04-22T22:06:00.171Z,50.30
2019-04-22T22:08:42.402Z,50.30
2019-04-22T22:11:11.303Z,50.70
2019-04-22T22:13:44.480Z,50.40
2019-04-22T22:16:06.609Z,50.50
2019-04-22T22:18:29.040Z,50.60
2019-04-22T22:21:25.284Z,50.40
2019-04-22T22:23:59.574Z,50.50
2019-04-22T22:26:06.907Z,50.60
2019-04-22T22:29:02.090Z,50.60
2019-04-22T22:31:14.811Z,50.80
2019-04-22T22:33:41.775Z,50.70
2019-04-22T22:36:05.139Z,50.60
2019-04-22T22:38:35.007Z,50.80
2019-04-22T22:40:51.918Z,51.00
2019-04-22T22:43:30.096Z,51.00
2019-04-22T22:46:03.307Z,50.80
2019-04-22T22:48:44.701Z,50.60
2019-04-22T22:51:15.236Z,50.80
2019-04-22T22:53:44.689Z,51.00
2019-04-22T22:56:13.919Z,50.60
2019-04-22T22:58:41.023Z,50.70
2019-04-22T23:01:09.654Z,51.20
2019-04-22T23:04:00.638Z,51.10
2019-04-22T23:06:21.332Z,51.90
2019-04-22T23:08:46.086Z,51.20
2019-04-22T23:11:15.256Z,51.60
2019-04-22T23:13:42.425Z,51.40
2019-04-22T23:16:04.166Z,51.50
2019-04-22T23:18:23.800Z,51.60
2019-04-22T23:20:54.088Z,51.70
2019-04-22T23:23:50.067Z,51.60
2019-04-22T23:26:09.204Z,51.70
2019-04-22T23:28:40.024Z,51.70
2019-04-22T23:31:09.537Z,51.70
2019-04-22T23:33:49.444Z,51.80
2019-04-22T23:36:22.849Z,51.90
2019-04-22T23:39:00.054Z,52.10
2019-04-22T23:41:45.775Z,52.30
2019-04-22T23:44:13.489Z,52.70
2019-04-22T23:46:52.152Z,52.60
2019-04-22T23:49:22.248Z,52.60
2019-04-22T23:52:02.634Z,53.10
2019-04-22T23:54:35.883Z,53.10
2019-04-22T23:56:52.229Z,53.40
2019-04-22T23:59:38.285Z,53.30
